KMXO/MXO METAR and TAF weather

Enter ICAO airport designator
Station Type Date Time Source
KMXO METAR 2020/04/06 14:15 UTC NOAA

KMXO 061415Z AUTO 15006G12KT 10SM OVC024 06/00 A3002 RMK AO2


Station Type Date Time Source
KMXO Decoded METAR 2020/04/06 14:15 UTC NOAA

Monticello Municipal, IA, United States (KMXO) 42-14N 091-10W
Apr 06, 2020 - 10:15 AM EDT / 2020.04.06 1415 UTC
Wind: from the SSE (150 degrees) at 7 MPH (6 KT) gusting to 14 MPH (12 KT):0
Visibility: 10 mile(s):0
Sky conditions: overcast
Temperature: 42 F (6 C)
Dew Point: 32 F (0 C)
Relative Humidity: 65%
Pressure (altimeter): 30.02 in. Hg (1016 hPa)
ob: KMXO 061415Z AUTO 15006G12KT 10SM OVC024 06/00 A3002 RMK AO2
cycle: 14

Station Type Date Time Source
KMXO TAF UTC NOAA

Error!

Example: see airport list